createdAt,value
2023-05-22T00:00:21.659Z,9.6
2023-05-22T00:01:28.280Z,9.7
2023-05-22T00:02:35.513Z,9.6
2023-05-22T00:03:42.418Z,9.6
2023-05-22T00:04:49.613Z,9.6
2023-05-22T00:07:03.265Z,9.6
2023-05-22T00:08:10.383Z,9.6
2023-05-22T00:09:17.502Z,9.6
2023-05-22T00:10:24.635Z,9.6
2023-05-22T00:11:31.672Z,9.6
2023-05-22T00:17:06.870Z,9.7
2023-05-22T00:18:13.280Z,9.7
2023-05-22T00:19:20.428Z,9.7
2023-05-22T00:20:27.497Z,9.7
2023-05-22T00:21:34.605Z,9.7
2023-05-22T00:22:41.142Z,9.7
2023-05-22T00:23:48.292Z,9.7
2023-05-22T00:24:55.889Z,9.7
2023-05-22T00:26:02.481Z,9.8
2023-05-22T00:27:09.588Z,9.8
2023-05-22T00:28:16.728Z,9.8
2023-05-22T00:29:23.323Z,9.8
2023-05-22T00:30:30.373Z,9.8
2023-05-22T00:31:37.523Z,9.8
2023-05-22T00:32:44.648Z,9.8
2023-05-22T00:33:51.253Z,9.8
2023-05-22T00:34:58.264Z,9.8
2023-05-22T00:36:05.446Z,9.7
2023-05-22T00:37:12.462Z,9.7
2023-05-22T00:38:19.591Z,9.7
2023-05-22T00:39:26.227Z,9.7
2023-05-22T00:40:33.274Z,9.7
2023-05-22T00:41:40.405Z,9.6
2023-05-22T00:42:47.491Z,9.6
2023-05-22T00:43:54.621Z,9.6
2023-05-22T00:45:01.195Z,9.6
2023-05-22T00:46:10.942Z,9.6
2023-05-22T00:47:15.431Z,9.6
2023-05-22T00:48:22.811Z,9.6
2023-05-22T00:49:29.684Z,9.6
2023-05-22T00:50:36.413Z,9.6
2023-05-22T00:51:43.346Z,9.6
2023-05-22T00:52:50.435Z,9.6
2023-05-22T00:53:57.625Z,9.6
2023-05-22T00:55:04.591Z,9.6
2023-05-22T00:56:11.208Z,9.7
2023-05-22T00:57:18.278Z,9.7
2023-05-22T00:58:25.475Z,9.7
2023-05-22T00:59:32.525Z,9.7
2023-05-22T01:00:39.897Z,9.7
2023-05-22T01:01:46.304Z,9.7
2023-05-22T01:04:01.448Z,9.8
2023-05-22T01:05:07.574Z,9.8
2023-05-22T01:06:14.661Z,9.8
2023-05-22T01:07:21.250Z,9.8
2023-05-22T01:08:28.324Z,9.8
2023-05-22T01:10:42.730Z,9.8
2023-05-22T01:11:49.629Z,9.8
2023-05-22T01:12:56.225Z,9.8
2023-05-22T01:14:03.337Z,9.8
2023-05-22T01:15:10.410Z,9.8
2023-05-22T01:16:17.563Z,9.8
2023-05-22T01:17:24.664Z,9.8
2023-05-22T01:18:31.211Z,9.8
2023-05-22T01:19:38.339Z,9.8
2023-05-22T01:20:46.590Z,9.8
2023-05-22T01:21:52.535Z,9.8
2023-05-22T01:22:59.649Z,9.8
2023-05-22T01:24:06.341Z,9.8
2023-05-22T01:25:13.352Z,9.8
2023-05-22T01:26:20.454Z,9.8
2023-05-22T01:27:27.612Z,9.8
2023-05-22T01:28:35.190Z,9.8
2023-05-22T01:29:41.278Z,9.8
2023-05-22T01:30:48.369Z,9.8
2023-05-22T01:31:55.431Z,9.9
2023-05-22T01:33:02.631Z,9.9
2023-05-22T01:34:09.728Z,9.9
2023-05-22T01:35:16.325Z,9.9
2023-05-22T01:36:23.422Z,9.9
2023-05-22T01:37:30.458Z,10
2023-05-22T01:38:37.625Z,10
2023-05-22T01:39:45.199Z,10
2023-05-22T01:40:51.292Z,10
2023-05-22T01:41:58.352Z,9.9
2023-05-22T01:43:05.482Z,10
2023-05-22T01:44:12.595Z,10
2023-05-22T01:45:19.207Z,10
2023-05-22T01:46:26.380Z,10
2023-05-22T01:47:33.405Z,9.9
2023-05-22T01:48:40.534Z,10
2023-05-22T01:49:47.648Z,10
2023-05-22T01:50:54.190Z,9.9
2023-05-22T01:52:01.306Z,9.9
2023-05-22T01:53:08.397Z,10
2023-05-22T01:54:15.543Z,10
2023-05-22T01:55:22.578Z,9.9
2023-05-22T01:56:29.186Z,9.9
2023-05-22T01:57:36.313Z,9.9
2023-05-22T01:58:43.391Z,9.9
2023-05-22T01:59:50.464Z,9.9
2023-05-22T02:00:57.680Z,9.9
2023-05-22T02:02:04.256Z,10
2023-05-22T02:03:11.422Z,10
2023-05-22T02:04:18.476Z,9.9
2023-05-22T02:05:25.522Z,10
2023-05-22T02:06:32.604Z,10
2023-05-22T02:07:39.256Z,10
2023-05-22T02:08:46.344Z,10
2023-05-22T02:09:53.379Z,9.9
2023-05-22T02:11:00.537Z,10
2023-05-22T02:12:07.623Z,9.9
2023-05-22T02:14:21.289Z,9.9
2023-05-22T02:15:28.486Z,9.9
2023-05-22T02:16:35.630Z,9.9
2023-05-22T02:17:42.709Z,9.9
2023-05-22T02:18:49.281Z,9.9
2023-05-22T02:19:56.310Z,9.9
2023-05-22T02:21:03.464Z,9.8
2023-05-22T02:22:10.502Z,9.8
2023-05-22T02:23:17.677Z,9.8
2023-05-22T02:24:24.245Z,9.8
2023-05-22T02:25:31.332Z,9.8
2023-05-22T02:26:38.462Z,9.8
2023-05-22T02:27:45.563Z,9.8
2023-05-22T02:28:52.658Z,9.8
2023-05-22T02:29:59.208Z,9.8
2023-05-22T02:32:13.936Z,9.9
2023-05-22T02:33:20.540Z,9.9
2023-05-22T02:34:27.706Z,9.9
2023-05-22T02:35:34.231Z,9.8
2023-05-22T02:36:41.345Z,9.9
2023-05-22T02:37:48.437Z,9.9
2023-05-22T02:38:55.736Z,9.8
2023-05-22T02:40:02.660Z,9.8
2023-05-22T02:41:09.248Z,9.8
2023-05-22T02:42:16.427Z,9.7
2023-05-22T02:43:23.434Z,9.7
2023-05-22T02:44:30.558Z,9.7
2023-05-22T02:45:37.113Z,9.7
2023-05-22T02:46:44.285Z,9.8
2023-05-22T02:47:51.345Z,9.7
2023-05-22T02:48:58.582Z,9.7
2023-05-22T02:50:05.593Z,9.6
2023-05-22T02:51:12.128Z,9.6
2023-05-22T02:52:19.273Z,9.6
2023-05-22T02:53:26.370Z,9.6
2023-05-22T02:54:33.465Z,9.6
2023-05-22T02:55:40.548Z,9.6
2023-05-22T02:56:47.126Z,9.6
2023-05-22T02:57:54.269Z,9.6
2023-05-22T02:59:01.351Z,9.6
2023-05-22T03:00:08.496Z,9.5
2023-05-22T03:01:15.653Z,9.5
2023-05-22T03:02:22.654Z,9.5
2023-05-22T03:03:29.426Z,9.4
2023-05-22T03:04:36.462Z,9.5
2023-05-22T03:05:43.473Z,9.4
2023-05-22T03:06:50.560Z,9.5
2023-05-22T03:07:58.216Z,9.4
2023-05-22T03:09:04.301Z,9.4
2023-05-22T03:10:11.360Z,9.4
2023-05-22T03:11:18.488Z,9.4
2023-05-22T03:12:25.585Z,9.4
2023-05-22T03:13:32.150Z,9.4
2023-05-22T03:14:39.311Z,9.3
2023-05-22T03:15:46.394Z,9.3
2023-05-22T03:18:00.678Z,9.3
2023-05-22T03:19:07.471Z,9.2
2023-05-22T03:20:14.300Z,9.2
2023-05-22T03:21:21.393Z,9.2
2023-05-22T03:22:28.524Z,9.2
2023-05-22T03:23:35.629Z,9.2
2023-05-22T03:24:42.200Z,9.2
2023-05-22T03:25:49.326Z,9.2
2023-05-22T03:26:56.405Z,9.2
2023-05-22T03:28:03.510Z,9.2
2023-05-22T03:29:10.654Z,9.1
2023-05-22T03:30:17.297Z,9.1
2023-05-22T03:31:24.292Z,9.1
2023-05-22T03:32:31.413Z,9.1
2023-05-22T03:33:38.541Z,9.1
2023-05-22T03:34:45.666Z,9.1
2023-05-22T03:35:52.767Z,9
2023-05-22T03:36:59.337Z,9.1
2023-05-22T03:38:06.447Z,9.1
2023-05-22T03:39:13.510Z,9.1
2023-05-22T03:40:20.720Z,9.1
2023-05-22T03:41:27.397Z,9.1
2023-05-22T03:42:34.336Z,9.1
2023-05-22T03:43:43.458Z,9.1
2023-05-22T03:44:48.566Z,9.1
2023-05-22T03:45:55.665Z,9.1
2023-05-22T03:47:02.213Z,9.1
2023-05-22T03:48:09.387Z,9.2
2023-05-22T03:49:16.492Z,9.2
2023-05-22T03:50:23.523Z,9.2
2023-05-22T03:51:30.655Z,9.2
2023-05-22T03:52:37.281Z,9.3
2023-05-22T03:53:44.335Z,9.2
2023-05-22T03:54:51.474Z,9.2
2023-05-22T03:55:58.577Z,9.2
2023-05-22T03:57:05.672Z,9.2
2023-05-22T03:58:12.236Z,9.2
2023-05-22T04:00:27.161Z,9.3
2023-05-22T04:01:33.566Z,9.4
2023-05-22T04:02:40.770Z,9.4
2023-05-22T04:03:47.282Z,9.4
2023-05-22T04:04:54.461Z,9.4
2023-05-22T04:06:01.459Z,9.4
2023-05-22T04:07:08.563Z,9.4
2023-05-22T04:08:15.699Z,9.5
2023-05-22T04:09:22.237Z,9.5
2023-05-22T04:10:29.425Z,9.5
2023-05-22T04:11:36.493Z,9.5
2023-05-22T04:12:43.622Z,9.6
2023-05-22T04:13:50.174Z,9.6
2023-05-22T04:14:57.320Z,9.6
2023-05-22T04:16:04.389Z,9.6
2023-05-22T04:17:11.462Z,9.6
2023-05-22T04:18:18.596Z,9.6
2023-05-22T04:19:25.281Z,9.6
2023-05-22T04:21:39.374Z,9.7
2023-05-22T04:22:46.505Z,9.7
2023-05-22T04:23:53.552Z,9.7
2023-05-22T04:25:00.253Z,9.7
2023-05-22T04:26:07.278Z,9.7
2023-05-22T04:27:14.413Z,9.7
2023-05-22T04:28:21.492Z,9.7
2023-05-22T04:29:28.655Z,9.7
2023-05-22T04:30:35.221Z,9.7
2023-05-22T04:31:42.468Z,9.7
2023-05-22T04:32:49.463Z,9.7
2023-05-22T04:33:56.648Z,9.8
2023-05-22T04:35:03.598Z,9.7
2023-05-22T04:36:12.315Z,9.7
2023-05-22T04:37:17.296Z,9.7
2023-05-22T04:38:24.376Z,9.8
2023-05-22T04:39:32.089Z,9.8
2023-05-22T04:40:38.966Z,9.8
2023-05-22T04:41:45.232Z,9.8
2023-05-22T04:42:52.368Z,9.8
2023-05-22T04:43:59.435Z,9.8
2023-05-22T04:45:06.548Z,9.8
2023-05-22T04:46:13.649Z,9.8
2023-05-22T04:47:20.710Z,9.9
2023-05-22T04:48:27.368Z,9.9
2023-05-22T04:49:34.384Z,9.9
2023-05-22T04:50:41.941Z,9.9
2023-05-22T04:51:48.671Z,9.9
2023-05-22T04:52:55.256Z,9.9
2023-05-22T04:54:02.397Z,9.9
2023-05-22T04:55:09.449Z,9.9
2023-05-22T04:56:24.366Z,9.9
2023-05-22T04:57:23.649Z,9.9
2023-05-22T04:58:30.265Z,9.9
2023-05-22T04:59:37.384Z,9.9
2023-05-22T05:00:44.514Z,10
2023-05-22T05:01:51.525Z,10
2023-05-22T05:02:58.802Z,10
2023-05-22T05:04:05.314Z,10
2023-05-22T05:05:12.373Z,10
2023-05-22T05:06:19.435Z,10.1
2023-05-22T05:07:26.626Z,10.1
2023-05-22T05:08:33.637Z,10.1
2023-05-22T05:09:40.290Z,10.1
2023-05-22T05:10:47.342Z,10.1
2023-05-22T05:11:54.509Z,10.1
2023-05-22T05:13:01.551Z,10.1
2023-05-22T05:14:08.698Z,10.1
2023-05-22T05:15:15.292Z,10.1
2023-05-22T05:16:22.389Z,10.1
2023-05-22T05:17:29.493Z,10.1
2023-05-22T05:18:36.560Z,10.1
2023-05-22T05:19:43.636Z,10.1
2023-05-22T05:20:50.236Z,10.1
2023-05-22T05:21:57.426Z,10.1
2023-05-22T05:23:04.432Z,10.1
2023-05-22T05:24:11.586Z,10.1
2023-05-22T05:25:18.202Z,10.1
2023-05-22T05:26:25.259Z,10.1
2023-05-22T05:28:39.471Z,10.1
2023-05-22T05:29:46.603Z,10.1
2023-05-22T05:30:53.171Z,10.1
2023-05-22T05:32:00.351Z,10.1
2023-05-22T05:33:07.407Z,10.1
2023-05-22T05:34:14.441Z,10.1
2023-05-22T05:35:21.570Z,10.1
2023-05-22T05:36:28.215Z,10.1
2023-05-22T05:37:35.306Z,10.1
2023-05-22T05:38:42.350Z,10.1
2023-05-22T05:39:49.534Z,10.1
2023-05-22T05:40:56.608Z,10.1
2023-05-22T05:42:03.191Z,10.1
2023-05-22T05:43:10.825Z,10.1
2023-05-22T05:44:17.420Z,10.2
2023-05-22T05:45:24.454Z,10.1
2023-05-22T05:46:31.701Z,10.2
2023-05-22T05:47:38.370Z,10.2
2023-05-22T05:48:45.293Z,10.2
2023-05-22T05:49:52.391Z,10.2
2023-05-22T05:50:59.496Z,10.2
2023-05-22T05:52:06.621Z,10.3
2023-05-22T05:53:13.160Z,10.3
2023-05-22T05:54:20.345Z,10.3
2023-05-22T05:55:27.466Z,10.3
2023-05-22T05:56:34.517Z,10.3
2023-05-22T05:57:41.622Z,10.3
2023-05-22T05:58:48.221Z,10.3
2023-05-22T05:59:55.310Z,10.3
2023-05-22T06:01:02.393Z,10.3
2023-05-22T06:02:09.580Z,10.3
2023-05-22T06:03:16.953Z,10.3
2023-05-22T06:04:23.707Z,10.3
2023-05-22T06:05:30.378Z,10.3
2023-05-22T06:06:37.434Z,10.3
2023-05-22T06:07:44.506Z,10.4
2023-05-22T06:08:51.596Z,10.4
2023-05-22T06:09:58.259Z,10.4
2023-05-22T06:11:05.327Z,10.4
2023-05-22T06:12:12.418Z,10.4
2023-05-22T06:13:19.565Z,10.4
2023-05-22T06:14:26.643Z,10.5
2023-05-22T06:15:33.213Z,10.5
2023-05-22T06:16:40.721Z,10.5
2023-05-22T06:17:47.472Z,10.6
2023-05-22T06:18:54.618Z,10.6
2023-05-22T06:20:01.625Z,10.7
2023-05-22T06:21:08.264Z,10.7
2023-05-22T06:22:15.329Z,10.7
2023-05-22T06:23:22.426Z,10.8
2023-05-22T06:24:29.632Z,10.8
2023-05-22T06:25:36.666Z,10.8
2023-05-22T06:26:43.266Z,10.8
2023-05-22T06:28:57.463Z,10.8
2023-05-22T06:30:05.028Z,10.9
2023-05-22T06:31:11.687Z,10.9
2023-05-22T06:32:18.307Z,10.9
2023-05-22T06:33:25.397Z,10.9
2023-05-22T06:34:32.424Z,11
2023-05-22T06:35:39.578Z,11
2023-05-22T06:36:46.160Z,11
2023-05-22T06:37:53.264Z,11
2023-05-22T06:39:00.370Z,11
2023-05-22T06:40:07.516Z,11
2023-05-22T06:41:14.597Z,11
2023-05-22T06:42:21.128Z,11
2023-05-22T06:43:28.289Z,11.1
2023-05-22T06:44:35.418Z,11.2
2023-05-22T06:45:42.484Z,11.3
2023-05-22T06:46:50.101Z,11.3
2023-05-22T06:47:56.212Z,11.3
2023-05-22T06:49:03.328Z,11.3
2023-05-22T06:50:10.453Z,11.3
2023-05-22T06:51:17.540Z,11.3
2023-05-22T06:52:24.586Z,11.3
2023-05-22T06:53:31.179Z,11.2
2023-05-22T06:54:38.281Z,11.2
2023-05-22T06:56:52.480Z,11.3
2023-05-22T06:57:59.590Z,11.3
2023-05-22T06:59:06.494Z,11.3
2023-05-22T07:00:13.316Z,11.3
2023-05-22T07:01:20.396Z,11.3
2023-05-22T07:02:27.559Z,11.3
2023-05-22T07:03:34.670Z,11.4
2023-05-22T07:04:41.212Z,11.4
2023-05-22T07:05:48.348Z,11.5
2023-05-22T07:06:55.406Z,11.5
2023-05-22T07:08:02.541Z,11.4
2023-05-22T07:09:09.605Z,11.4
2023-05-22T07:10:16.247Z,11.4
2023-05-22T07:11:23.315Z,11.4
2023-05-22T07:12:30.371Z,11.4
2023-05-22T07:13:37.538Z,11.4
2023-05-22T07:14:44.686Z,11.4
2023-05-22T07:15:51.220Z,11.4
2023-05-22T07:16:58.430Z,11.4
2023-05-22T07:18:05.469Z,11.4
2023-05-22T07:19:12.581Z,11.5
2023-05-22T07:20:19.724Z,11.5
2023-05-22T07:21:26.276Z,11.4
2023-05-22T07:22:33.331Z,11.4
2023-05-22T07:23:40.401Z,11.4
2023-05-22T07:24:47.601Z,11.5
2023-05-22T07:25:54.612Z,11.5
2023-05-22T07:27:01.221Z,11.7
2023-05-22T07:28:08.339Z,11.7
2023-05-22T07:29:15.461Z,11.7
2023-05-22T07:30:22.544Z,11.8
2023-05-22T07:32:36.779Z,12
2023-05-22T07:33:43.300Z,12
2023-05-22T07:34:50.480Z,12
2023-05-22T07:35:57.518Z,12
2023-05-22T07:37:04.699Z,12.1
2023-05-22T07:38:11.220Z,12.1
2023-05-22T07:39:18.366Z,12.1
2023-05-22T07:40:26.555Z,12.1
2023-05-22T07:41:32.549Z,12.1
2023-05-22T07:42:39.655Z,12.2
2023-05-22T07:43:46.273Z,12.2
2023-05-22T07:44:53.335Z,12.3
2023-05-22T07:46:00.480Z,12.5
2023-05-22T07:47:07.555Z,12.6
2023-05-22T07:48:14.146Z,12.7
2023-05-22T07:49:21.370Z,12.8
2023-05-22T07:50:28.915Z,13
2023-05-22T07:51:35.456Z,13.1
2023-05-22T07:52:42.537Z,13.2
2023-05-22T07:53:49.158Z,13.4
2023-05-22T07:54:56.281Z,13.4
2023-05-22T07:56:03.338Z,13.5
2023-05-22T07:57:10.496Z,13.6
2023-05-22T07:58:17.576Z,13.7
2023-05-22T07:59:24.193Z,13.8
2023-05-22T08:00:31.302Z,13.8
2023-05-22T08:01:38.383Z,13.9
2023-05-22T08:02:45.540Z,14
2023-05-22T08:03:52.959Z,14
2023-05-22T08:04:59.259Z,14
2023-05-22T08:06:06.300Z,13.8
2023-05-22T08:07:13.372Z,13.9
2023-05-22T08:08:20.504Z,14
2023-05-22T08:09:27.669Z,14.1
2023-05-22T08:10:52.087Z,14.2
2023-05-22T08:11:41.266Z,14.2
2023-05-22T08:12:48.387Z,14.4
2023-05-22T08:13:55.494Z,14.4
2023-05-22T08:15:02.612Z,14.4
2023-05-22T08:16:11.159Z,14.4
2023-05-22T08:17:16.357Z,14.4
2023-05-22T08:18:23.378Z,14.4
2023-05-22T08:19:30.537Z,14.5
2023-05-22T08:20:37.874Z,14.6
2023-05-22T08:21:44.173Z,14.6
2023-05-22T08:22:52.327Z,14.6
2023-05-22T08:25:05.541Z,14.7
2023-05-22T08:26:12.652Z,14.8
2023-05-22T08:27:19.196Z,14.7
2023-05-22T08:28:26.296Z,14.8
2023-05-22T08:29:33.435Z,14.8
2023-05-22T08:30:40.749Z,14.9
2023-05-22T08:31:47.678Z,14.8
2023-05-22T08:32:54.237Z,14.9
2023-05-22T08:34:01.337Z,15
2023-05-22T08:36:15.526Z,15.1
2023-05-22T08:37:22.584Z,15.1
2023-05-22T08:38:29.211Z,15.2
2023-05-22T08:39:36.339Z,15.2
2023-05-22T08:40:46.251Z,15.2
2023-05-22T08:41:50.524Z,15.2
2023-05-22T08:42:57.111Z,15.2
2023-05-22T08:44:04.243Z,15.2
2023-05-22T08:45:11.328Z,15.1
2023-05-22T08:46:18.484Z,15.2
2023-05-22T08:47:25.554Z,15.2
2023-05-22T08:48:32.106Z,15.2
2023-05-22T08:49:39.263Z,15.2
2023-05-22T08:50:46.338Z,15.2
2023-05-22T08:51:53.405Z,15.2
2023-05-22T08:53:00.520Z,15.2
2023-05-22T08:54:08.165Z,15.2
2023-05-22T08:55:14.202Z,15.3
2023-05-22T08:56:21.319Z,15.3
2023-05-22T08:57:28.436Z,15.4
2023-05-22T08:58:35.567Z,15.5
2023-05-22T08:59:42.179Z,15.6
2023-05-22T09:00:49.792Z,15.5
2023-05-22T09:01:56.363Z,15.3
2023-05-22T09:03:03.529Z,15.2
2023-05-22T09:04:10.633Z,15.1
2023-05-22T09:05:17.215Z,15.1
2023-05-22T09:06:24.246Z,15
2023-05-22T09:07:31.338Z,14.9
2023-05-22T09:08:38.490Z,14.7
2023-05-22T09:09:45.592Z,14.6
2023-05-22T09:10:52.136Z,14.6
2023-05-22T09:11:59.236Z,14.5
2023-05-22T09:13:06.380Z,14.4
2023-05-22T09:14:13.483Z,14.4
2023-05-22T09:15:20.602Z,14.4
2023-05-22T09:16:27.245Z,14.4
2023-05-22T09:17:34.544Z,14.6
2023-05-22T09:18:41.362Z,14.5
2023-05-22T09:19:48.538Z,14.5
2023-05-22T09:20:55.616Z,14.4
2023-05-22T09:22:02.209Z,14.4
2023-05-22T09:23:09.320Z,14.6
2023-05-22T09:24:16.381Z,14.7
2023-05-22T09:25:23.480Z,14.7
2023-05-22T09:26:30.609Z,14.8
2023-05-22T09:27:37.176Z,14.9
2023-05-22T09:28:44.239Z,14.9
2023-05-22T09:29:51.429Z,14.9
2023-05-22T09:30:58.549Z,14.9
2023-05-22T09:32:05.623Z,14.8
2023-05-22T09:33:12.340Z,14.7
2023-05-22T09:34:19.287Z,14.8
2023-05-22T09:35:26.426Z,14.9
2023-05-22T09:36:33.500Z,14.9
2023-05-22T09:37:40.628Z,14.9
2023-05-22T09:38:47.207Z,15
2023-05-22T09:39:54.296Z,15
2023-05-22T09:41:01.359Z,14.9
2023-05-22T09:42:08.505Z,15
2023-05-22T09:43:15.137Z,14.9
2023-05-22T09:44:22.189Z,14.7
2023-05-22T09:45:29.347Z,14.7
2023-05-22T09:46:36.584Z,14.6
2023-05-22T09:47:43.589Z,14.4
2023-05-22T09:48:50.108Z,14.3
2023-05-22T09:49:57.208Z,14.2
2023-05-22T09:51:04.318Z,14.1
2023-05-22T09:53:18.537Z,13.9
2023-05-22T09:54:25.131Z,13.8
2023-05-22T09:55:32.276Z,13.8
2023-05-22T09:56:40.264Z,13.7
2023-05-22T09:57:46.948Z,13.7
2023-05-22T09:58:53.496Z,13.7
2023-05-22T10:00:00.237Z,13.8
2023-05-22T10:01:07.304Z,13.7
2023-05-22T10:02:14.310Z,13.8
2023-05-22T10:03:21.397Z,13.8
2023-05-22T10:04:28.656Z,13.9
2023-05-22T10:05:35.113Z,13.9
2023-05-22T10:06:42.257Z,13.8
2023-05-22T10:07:49.384Z,13.8
2023-05-22T10:08:56.432Z,13.8
2023-05-22T10:10:03.563Z,13.7
2023-05-22T10:11:10.181Z,13.7
2023-05-22T10:12:17.258Z,13.7
2023-05-22T10:13:24.334Z,13.6
2023-05-22T10:14:31.458Z,13.6
2023-05-22T10:15:38.674Z,13.6
2023-05-22T10:16:45.237Z,13.5
2023-05-22T10:17:52.323Z,13.4
2023-05-22T10:18:59.368Z,13.4
2023-05-22T10:20:06.468Z,13.4
2023-05-22T10:21:13.635Z,13.4
2023-05-22T10:22:20.154Z,13.4
2023-05-22T10:23:27.276Z,13.4
2023-05-22T10:24:34.357Z,13.3
2023-05-22T10:25:41.476Z,13.3
2023-05-22T10:26:48.608Z,13.3
2023-05-22T10:27:55.186Z,13.4
2023-05-22T10:29:02.785Z,13.4
2023-05-22T10:30:09.429Z,13.4
2023-05-22T10:31:16.536Z,13.4
2023-05-22T10:32:23.610Z,13.4
2023-05-22T10:33:30.224Z,13.5
2023-05-22T10:34:37.282Z,13.5
2023-05-22T10:35:44.334Z,13.5
2023-05-22T10:36:52.243Z,13.5
2023-05-22T10:37:58.597Z,13.6
2023-05-22T10:39:05.155Z,13.7
2023-05-22T10:40:12.285Z,13.7
2023-05-22T10:41:19.400Z,13.9
2023-05-22T10:43:33.569Z,14
2023-05-22T10:44:40.200Z,14.1
2023-05-22T10:45:47.360Z,14.1
2023-05-22T10:46:54.452Z,14.1
2023-05-22T10:48:01.548Z,14
2023-05-22T10:49:08.593Z,14
2023-05-22T10:50:15.199Z,14
2023-05-22T10:51:22.274Z,14
2023-05-22T10:52:29.431Z,14
2023-05-22T10:53:36.558Z,14
2023-05-22T10:54:43.059Z,14
2023-05-22T10:55:50.253Z,13.9
2023-05-22T10:56:57.281Z,13.9
2023-05-22T10:58:05.009Z,13.9
2023-05-22T10:59:11.503Z,13.8
2023-05-22T11:00:18.133Z,13.8
2023-05-22T11:01:25.783Z,13.8
2023-05-22T11:02:32.389Z,13.8
2023-05-22T11:03:39.505Z,13.8
2023-05-22T11:04:46.658Z,13.7
2023-05-22T11:05:53.107Z,13.7
2023-05-22T11:07:00.230Z,13.7
2023-05-22T11:08:07.341Z,13.8
2023-05-22T11:09:14.385Z,13.9
2023-05-22T11:10:21.540Z,14
2023-05-22T11:11:28.125Z,14
2023-05-22T11:12:35.385Z,14
2023-05-22T11:13:42.318Z,14
2023-05-22T11:14:49.481Z,14.1
2023-05-22T11:15:56.596Z,14
2023-05-22T11:17:03.093Z,14.1
2023-05-22T11:18:10.380Z,14.1
2023-05-22T11:21:31.581Z,14
2023-05-22T11:22:38.167Z,14
2023-05-22T11:23:45.234Z,14
2023-05-22T11:24:52.345Z,14
2023-05-22T11:25:59.441Z,14.2
2023-05-22T11:27:06.563Z,14.4
2023-05-22T11:28:13.129Z,14.6
2023-05-22T11:29:20.273Z,14.7
2023-05-22T11:30:27.325Z,14.6
2023-05-22T11:31:34.479Z,14.6
2023-05-22T11:32:41.588Z,14.6
2023-05-22T11:33:48.178Z,14.5
2023-05-22T11:34:55.324Z,14.5
2023-05-22T11:36:02.341Z,14.5
2023-05-22T11:37:09.466Z,14.5
2023-05-22T11:38:16.583Z,14.5
2023-05-22T11:39:23.117Z,14.5
2023-05-22T11:40:30.305Z,14.4
2023-05-22T11:41:37.366Z,14.3
2023-05-22T11:42:44.474Z,14.2
2023-05-22T11:43:51.539Z,14.2
2023-05-22T11:44:58.161Z,14.2
2023-05-22T11:47:12.341Z,14
2023-05-22T11:48:19.515Z,14
2023-05-22T11:49:26.101Z,13.8
2023-05-22T11:50:42.467Z,13.8
2023-05-22T11:51:40.274Z,13.8
2023-05-22T11:52:47.382Z,13.7
2023-05-22T11:53:54.492Z,13.7
2023-05-22T11:55:01.364Z,13.7
2023-05-22T11:56:11.117Z,13.7
2023-05-22T11:57:15.813Z,13.7
2023-05-22T11:58:22.404Z,13.7
2023-05-22T11:59:29.530Z,13.7
2023-05-22T12:00:36.201Z,13.7
2023-05-22T12:01:43.156Z,13.7
2023-05-22T12:02:50.448Z,13.8
2023-05-22T12:03:57.524Z,13.8
2023-05-22T12:05:05.079Z,13.9
2023-05-22T12:06:11.101Z,14
2023-05-22T12:07:18.193Z,14
2023-05-22T12:08:25.352Z,14.2
2023-05-22T12:09:32.384Z,14.2
2023-05-22T12:10:39.753Z,14.1
2023-05-22T12:11:46.100Z,14
2023-05-22T12:12:53.154Z,13.9
2023-05-22T12:14:00.306Z,13.9
2023-05-22T12:15:07.524Z,13.8
2023-05-22T12:16:14.563Z,13.8
2023-05-22T12:17:21.078Z,14
2023-05-22T12:18:28.220Z,14.2
2023-05-22T12:19:35.364Z,14.3
2023-05-22T12:20:42.423Z,14.3
2023-05-22T12:21:49.561Z,14.4
2023-05-22T12:22:56.127Z,14.5
2023-05-22T12:24:03.185Z,14.6
2023-05-22T12:25:10.368Z,14.5
2023-05-22T12:26:17.497Z,14.6
2023-05-22T12:27:24.513Z,14.6
2023-05-22T12:28:31.108Z,14.6
2023-05-22T12:29:38.230Z,14.5
2023-05-22T12:30:45.327Z,14.5
2023-05-22T12:31:52.509Z,14.4
2023-05-22T12:32:59.648Z,14.3
2023-05-22T12:34:06.136Z,14.3
2023-05-22T12:35:13.225Z,14.2
2023-05-22T12:36:20.385Z,14.2
2023-05-22T12:37:27.447Z,14.2
2023-05-22T12:38:35.664Z,14.1
2023-05-22T12:39:41.149Z,14
2023-05-22T12:40:48.515Z,14
2023-05-22T12:41:55.347Z,13.9
2023-05-22T12:43:02.460Z,13.9
2023-05-22T12:44:09.580Z,13.9
2023-05-22T12:45:16.127Z,13.9
2023-05-22T12:46:23.371Z,13.9
2023-05-22T12:47:30.393Z,13.9
2023-05-22T12:48:37.468Z,13.9
2023-05-22T12:50:51.212Z,13.9
2023-05-22T12:51:58.292Z,13.9
2023-05-22T12:53:05.377Z,13.9
2023-05-22T12:54:12.470Z,14
2023-05-22T12:55:19.074Z,14.1
2023-05-22T12:56:26.157Z,14.2
2023-05-22T12:57:33.293Z,14.2
2023-05-22T12:58:40.325Z,14.2
2023-05-22T12:59:47.507Z,14.3
2023-05-22T13:00:54.028Z,14.2
2023-05-22T13:02:01.290Z,14.2
2023-05-22T13:03:08.369Z,14.2
2023-05-22T13:04:15.346Z,14.1
2023-05-22T13:05:22.585Z,14
2023-05-22T13:06:30.420Z,14
2023-05-22T13:07:36.157Z,14
2023-05-22T13:08:43.833Z,14
2023-05-22T13:09:50.359Z,14
2023-05-22T13:10:57.471Z,14
2023-05-22T13:12:04.136Z,14
2023-05-22T13:13:11.221Z,13.9
2023-05-22T13:14:18.341Z,13.9
2023-05-22T13:15:25.385Z,13.8
2023-05-22T13:16:32.541Z,13.9
2023-05-22T13:17:39.107Z,13.9
2023-05-22T13:18:46.231Z,13.8
2023-05-22T13:19:53.315Z,13.7
2023-05-22T13:21:00.477Z,13.7
2023-05-22T13:22:07.512Z,13.7
2023-05-22T13:23:14.060Z,13.7
2023-05-22T13:24:21.176Z,13.8
2023-05-22T13:25:28.301Z,13.8
2023-05-22T13:26:35.416Z,13.8
2023-05-22T13:27:42.495Z,13.9
2023-05-22T13:28:49.132Z,14
2023-05-22T13:29:56.205Z,14
2023-05-22T13:31:03.313Z,14.1
2023-05-22T13:32:10.368Z,14
2023-05-22T13:33:17.548Z,14
2023-05-22T13:34:24.169Z,14
2023-05-22T13:35:31.229Z,13.9
2023-05-22T13:36:38.323Z,13.9
2023-05-22T13:37:45.402Z,14
2023-05-22T13:38:52.536Z,13.9
2023-05-22T13:39:59.107Z,13.8
2023-05-22T13:41:06.256Z,13.8
2023-05-22T13:42:13.296Z,13.8
2023-05-22T13:43:20.407Z,13.8
2023-05-22T13:44:27.015Z,13.8
2023-05-22T13:45:34.097Z,13.8
2023-05-22T13:46:41.326Z,13.7
2023-05-22T13:47:48.379Z,13.7
2023-05-22T13:48:55.447Z,13.7
2023-05-22T13:50:02.070Z,13.7
2023-05-22T13:51:09.188Z,13.7
2023-05-22T13:52:16.254Z,13.7
2023-05-22T13:53:23.376Z,13.7
2023-05-22T13:54:30.414Z,13.7
2023-05-22T13:55:37.151Z,13.8
2023-05-22T13:56:44.127Z,13.8
2023-05-22T13:57:51.209Z,13.8
2023-05-22T13:58:58.390Z,13.8
2023-05-22T14:00:05.515Z,13.8
2023-05-22T14:01:12.030Z,13.8
2023-05-22T14:02:19.143Z,13.8
2023-05-22T14:03:26.261Z,13.7
2023-05-22T14:04:33.314Z,13.7
2023-05-22T14:05:40.736Z,13.7
2023-05-22T14:06:47.035Z,13.8
2023-05-22T14:07:54.184Z,13.8
2023-05-22T14:09:01.246Z,13.8
2023-05-22T14:10:08.339Z,13.8
2023-05-22T14:11:15.521Z,13.9
2023-05-22T14:12:23.102Z,13.9
2023-05-22T14:13:29.181Z,13.9
2023-05-22T14:14:36.281Z,14
2023-05-22T14:15:43.363Z,13.9
2023-05-22T14:16:50.453Z,13.9
2023-05-22T14:17:57.051Z,13.9
2023-05-22T14:19:04.196Z,13.9
2023-05-22T14:20:11.359Z,13.9
2023-05-22T14:21:18.416Z,13.8
2023-05-22T14:22:25.448Z,13.8
2023-05-22T14:23:32.117Z,13.7
2023-05-22T14:24:39.187Z,13.7
2023-05-22T14:25:46.321Z,13.7
2023-05-22T14:26:53.427Z,13.6
2023-05-22T14:28:00.483Z,13.5
2023-05-22T14:29:07.061Z,13.6
2023-05-22T14:30:14.180Z,13.6
2023-05-22T14:31:21.317Z,13.7
2023-05-22T14:32:28.441Z,13.7
2023-05-22T14:33:35.473Z,13.8
2023-05-22T14:34:42.070Z,13.8
2023-05-22T14:35:49.261Z,13.8
2023-05-22T14:36:56.274Z,13.7
2023-05-22T14:38:03.399Z,13.6
2023-05-22T14:39:10.552Z,13.6
2023-05-22T14:40:17.137Z,13.6
2023-05-22T14:41:24.192Z,13.7
2023-05-22T14:42:31.284Z,13.8
2023-05-22T14:43:38.403Z,13.9
2023-05-22T14:44:45.617Z,13.9
2023-05-22T14:45:52.137Z,13.9
2023-05-22T14:46:59.196Z,13.9
2023-05-22T14:48:06.770Z,13.9
2023-05-22T14:49:13.382Z,13.8
2023-05-22T14:50:20.749Z,13.6
2023-05-22T14:51:27.086Z,13.6
2023-05-22T14:52:34.202Z,13.5
2023-05-22T14:54:48.404Z,13.4
2023-05-22T14:55:54.959Z,13.4
2023-05-22T14:58:09.259Z,13.3
2023-05-22T14:59:16.312Z,13.3
2023-05-22T15:00:23.460Z,13.3
2023-05-22T15:01:30.176Z,13.4
2023-05-22T15:02:37.234Z,13.4
2023-05-22T15:03:44.222Z,13.4
2023-05-22T15:04:51.386Z,13.4
2023-05-22T15:05:58.461Z,13.4
2023-05-22T15:07:05.038Z,13.4
2023-05-22T15:08:12.082Z,13.5
2023-05-22T15:09:19.261Z,13.4
2023-05-22T15:10:26.332Z,13.4
2023-05-22T15:11:33.410Z,13.4
2023-05-22T15:12:40.059Z,13.4
2023-05-22T15:13:47.169Z,13.4
2023-05-22T15:14:54.219Z,13.4
2023-05-22T15:16:01.830Z,13.4
2023-05-22T15:17:08.479Z,13.4
2023-05-22T15:18:15.130Z,13.3
2023-05-22T15:19:22.207Z,13.3
2023-05-22T15:20:29.247Z,13.3
2023-05-22T15:21:36.342Z,13.3
2023-05-22T15:22:43.452Z,13.2
2023-05-22T15:23:50.039Z,13.2
2023-05-22T15:24:57.133Z,13.2
2023-05-22T15:26:04.339Z,13.2
2023-05-22T15:27:11.314Z,13.2
2023-05-22T15:28:18.455Z,13.2
2023-05-22T15:29:25.059Z,13.2
2023-05-22T15:30:32.129Z,13.2
2023-05-22T15:31:39.346Z,13.3
2023-05-22T15:32:46.428Z,13.4
2023-05-22T15:33:53.431Z,13.4
2023-05-22T15:35:00.124Z,13.4
2023-05-22T15:36:07.224Z,13.4